sensor_id;sensor_type;location;lat;lon;timestamp;temperature;humidity
38788;DHT22;24536;45.488;12.238;2023-11-19T00:00:09;11.00;83.20
38788;DHT22;24536;45.488;12.238;2023-11-19T00:02:38;10.90;83.00
38788;DHT22;24536;45.488;12.238;2023-11-19T00:05:03;10.90;83.10
38788;DHT22;24536;45.488;12.238;2023-11-19T00:07:29;10.80;83.00
38788;DHT22;24536;45.488;12.238;2023-11-19T00:09:54;10.90;83.00
38788;DHT22;24536;45.488;12.238;2023-11-19T00:12:20;10.80;83.00
38788;DHT22;24536;45.488;12.238;2023-11-19T00:14:46;10.70;83.00
38788;DHT22;24536;45.488;12.238;2023-11-19T00:17:11;10.70;83.30
38788;DHT22;24536;45.488;12.238;2023-11-19T00:19:37;10.60;83.40
38788;DHT22;24536;45.488;12.238;2023-11-19T00:22:02;10.50;83.80
38788;DHT22;24536;45.488;12.238;2023-11-19T00:24:29;10.50;84.20
38788;DHT22;24536;45.488;12.238;2023-11-19T00:26:54;10.40;84.60
38788;DHT22;24536;45.488;12.238;2023-11-19T00:29:20;10.40;84.40
38788;DHT22;24536;45.488;12.238;2023-11-19T00:31:46;10.30;84.40
38788;DHT22;24536;45.488;12.238;2023-11-19T00:34:11;10.40;84.40
38788;DHT22;24536;45.488;12.238;2023-11-19T00:36:37;10.40;84.50
38788;DHT22;24536;45.488;12.238;2023-11-19T00:39:02;10.50;84.70
38788;DHT22;24536;45.488;12.238;2023-11-19T00:41:28;10.50;84.30
38788;DHT22;24536;45.488;12.238;2023-11-19T00:43:54;10.50;84.30
38788;DHT22;24536;45.488;12.238;2023-11-19T00:46:19;10.60;84.10
38788;DHT22;24536;45.488;12.238;2023-11-19T00:48:45;10.60;83.70
38788;DHT22;24536;45.488;12.238;2023-11-19T00:51:12;10.60;83.70
38788;DHT22;24536;45.488;12.238;2023-11-19T00:53:38;10.60;83.60
38788;DHT22;24536;45.488;12.238;2023-11-19T00:56:03;10.60;83.70
38788;DHT22;24536;45.488;12.238;2023-11-19T00:58:29;10.60;83.60
38788;DHT22;24536;45.488;12.238;2023-11-19T01:00:55;10.60;83.60
38788;DHT22;24536;45.488;12.238;2023-11-19T01:03:22;10.70;83.50
38788;DHT22;24536;45.488;12.238;2023-11-19T01:05:48;10.70;83.40
38788;DHT22;24536;45.488;12.238;2023-11-19T01:08:13;10.80;83.20
38788;DHT22;24536;45.488;12.238;2023-11-19T01:10:40;10.80;83.10
38788;DHT22;24536;45.488;12.238;2023-11-19T01:13:05;10.90;82.70
38788;DHT22;24536;45.488;12.238;2023-11-19T01:15:31;10.80;82.50
38788;DHT22;24536;45.488;12.238;2023-11-19T01:20:26;10.80;82.60
38788;DHT22;24536;45.488;12.238;2023-11-19T01:22:52;10.80;82.40
38788;DHT22;24536;45.488;12.238;2023-11-19T01:25:17;10.80;81.90
38788;DHT22;24536;45.488;12.238;2023-11-19T01:27:43;10.80;81.90
38788;DHT22;24536;45.488;12.238;2023-11-19T01:30:08;10.80;82.00
38788;DHT22;24536;45.488;12.238;2023-11-19T01:32:42;10.80;82.30
38788;DHT22;24536;45.488;12.238;2023-11-19T01:35:08;10.80;82.10
38788;DHT22;24536;45.488;12.238;2023-11-19T01:37:34;10.80;81.90
38788;DHT22;24536;45.488;12.238;2023-11-19T01:40:01;10.80;81.70
38788;DHT22;24536;45.488;12.238;2023-11-19T01:42:28;10.80;82.00
38788;DHT22;24536;45.488;12.238;2023-11-19T01:45:00;10.70;82.20
38788;DHT22;24536;45.488;12.238;2023-11-19T01:47:26;10.80;82.30
38788;DHT22;24536;45.488;12.238;2023-11-19T01:49:52;10.80;82.40
38788;DHT22;24536;45.488;12.238;2023-11-19T01:52:18;10.80;82.40
38788;DHT22;24536;45.488;12.238;2023-11-19T01:54:45;10.80;82.40
38788;DHT22;24536;45.488;12.238;2023-11-19T01:57:11;10.90;82.00
38788;DHT22;24536;45.488;12.238;2023-11-19T01:59:37;10.90;82.10
38788;DHT22;24536;45.488;12.238;2023-11-19T02:02:03;10.90;82.10
38788;DHT22;24536;45.488;12.238;2023-11-19T02:04:30;11.00;82.30
38788;DHT22;24536;45.488;12.238;2023-11-19T02:06:56;11.00;81.90
38788;DHT22;24536;45.488;12.238;2023-11-19T02:09:23;11.00;81.70
38788;DHT22;24536;45.488;12.238;2023-11-19T02:11:48;11.00;81.30
38788;DHT22;24536;45.488;12.238;2023-11-19T02:14:19;11.10;80.70
38788;DHT22;24536;45.488;12.238;2023-11-19T02:16:49;11.10;80.20
38788;DHT22;24536;45.488;12.238;2023-11-19T02:19:14;11.10;80.70
38788;DHT22;24536;45.488;12.238;2023-11-19T02:21:40;11.10;80.10
38788;DHT22;24536;45.488;12.238;2023-11-19T02:24:08;11.00;79.90
38788;DHT22;24536;45.488;12.238;2023-11-19T02:26:39;11.00;79.90
38788;DHT22;24536;45.488;12.238;2023-11-19T02:29:05;11.00;80.00
38788;DHT22;24536;45.488;12.238;2023-11-19T02:31:32;11.00;80.40
38788;DHT22;24536;45.488;12.238;2023-11-19T02:33:57;11.10;80.30
38788;DHT22;24536;45.488;12.238;2023-11-19T02:36:25;11.10;80.00
38788;DHT22;24536;45.488;12.238;2023-11-19T02:38:51;11.10;79.80
38788;DHT22;24536;45.488;12.238;2023-11-19T02:41:16;11.00;79.80
38788;DHT22;24536;45.488;12.238;2023-11-19T02:43:42;11.00;80.00
38788;DHT22;24536;45.488;12.238;2023-11-19T02:46:07;11.00;80.10
38788;DHT22;24536;45.488;12.238;2023-11-19T02:48:34;11.00;80.50
38788;DHT22;24536;45.488;12.238;2023-11-19T02:51:03;11.00;80.20
38788;DHT22;24536;45.488;12.238;2023-11-19T02:53:29;11.00;80.30
38788;DHT22;24536;45.488;12.238;2023-11-19T02:55:55;11.00;80.60
38788;DHT22;24536;45.488;12.238;2023-11-19T02:58:27;11.00;80.10
38788;DHT22;24536;45.488;12.238;2023-11-19T03:00:54;10.90;79.90
38788;DHT22;24536;45.488;12.238;2023-11-19T03:03:25;10.90;79.70
38788;DHT22;24536;45.488;12.238;2023-11-19T03:05:54;10.90;78.70
38788;DHT22;24536;45.488;12.238;2023-11-19T03:08:20;10.90;79.30
38788;DHT22;24536;45.488;12.238;2023-11-19T03:10:46;10.90;80.10
38788;DHT22;24536;45.488;12.238;2023-11-19T03:13:12;10.90;79.70
38788;DHT22;24536;45.488;12.238;2023-11-19T03:15:39;10.80;79.70
38788;DHT22;24536;45.488;12.238;2023-11-19T03:18:05;10.80;80.00
38788;DHT22;24536;45.488;12.238;2023-11-19T03:20:30;10.80;79.80
38788;DHT22;24536;45.488;12.238;2023-11-19T03:22:56;10.70;79.90
38788;DHT22;24536;45.488;12.238;2023-11-19T03:25:24;10.70;80.20
38788;DHT22;24536;45.488;12.238;2023-11-19T03:27:51;10.80;80.20
38788;DHT22;24536;45.488;12.238;2023-11-19T03:30:16;10.70;80.10
38788;DHT22;24536;45.488;12.238;2023-11-19T03:32:43;10.70;80.40
38788;DHT22;24536;45.488;12.238;2023-11-19T03:35:08;10.70;79.90
38788;DHT22;24536;45.488;12.238;2023-11-19T03:37:34;10.70;80.30
38788;DHT22;24536;45.488;12.238;2023-11-19T03:40:01;10.60;80.60
38788;DHT22;24536;45.488;12.238;2023-11-19T03:42:26;10.60;81.60
38788;DHT22;24536;45.488;12.238;2023-11-19T03:44:52;10.50;81.90
38788;DHT22;24536;45.488;12.238;2023-11-19T03:47:18;10.40;82.40
38788;DHT22;24536;45.488;12.238;2023-11-19T03:49:47;10.40;83.40
38788;DHT22;24536;45.488;12.238;2023-11-19T03:52:14;10.30;83.30
38788;DHT22;24536;45.488;12.238;2023-11-19T03:54:39;10.30;83.80
38788;DHT22;24536;45.488;12.238;2023-11-19T03:57:05;10.30;83.80
38788;DHT22;24536;45.488;12.238;2023-11-19T03:59:30;10.30;84.10
38788;DHT22;24536;45.488;12.238;2023-11-19T04:01:56;10.30;84.00
38788;DHT22;24536;45.488;12.238;2023-11-19T04:04:22;10.20;84.00
38788;DHT22;24536;45.488;12.238;2023-11-19T04:06:48;10.20;83.90
38788;DHT22;24536;45.488;12.238;2023-11-19T04:09:13;10.30;84.10
38788;DHT22;24536;45.488;12.238;2023-11-19T04:11:39;10.30;84.30
38788;DHT22;24536;45.488;12.238;2023-11-19T04:14:05;10.20;84.20
38788;DHT22;24536;45.488;12.238;2023-11-19T04:16:31;10.20;84.80
38788;DHT22;24536;45.488;12.238;2023-11-19T04:18:56;10.10;84.80
38788;DHT22;24536;45.488;12.238;2023-11-19T04:21:22;10.00;84.80
38788;DHT22;24536;45.488;12.238;2023-11-19T04:23:48;10.00;85.30
38788;DHT22;24536;45.488;12.238;2023-11-19T04:26:14;10.00;85.10
38788;DHT22;24536;45.488;12.238;2023-11-19T04:28:41;9.90;85.40
38788;DHT22;24536;45.488;12.238;2023-11-19T04:31:06;9.90;85.40
38788;DHT22;24536;45.488;12.238;2023-11-19T04:33:32;9.90;85.80
38788;DHT22;24536;45.488;12.238;2023-11-19T04:35:57;9.80;85.60
38788;DHT22;24536;45.488;12.238;2023-11-19T04:38:23;9.80;86.00
38788;DHT22;24536;45.488;12.238;2023-11-19T04:40:48;9.80;86.00
38788;DHT22;24536;45.488;12.238;2023-11-19T04:43:14;9.70;86.30
38788;DHT22;24536;45.488;12.238;2023-11-19T04:45:40;9.80;86.40
38788;DHT22;24536;45.488;12.238;2023-11-19T04:48:06;9.80;86.30
38788;DHT22;24536;45.488;12.238;2023-11-19T04:50:32;9.80;86.30
38788;DHT22;24536;45.488;12.238;2023-11-19T04:52:57;9.70;86.40
38788;DHT22;24536;45.488;12.238;2023-11-19T04:55:23;9.70;86.40
38788;DHT22;24536;45.488;12.238;2023-11-19T04:57:48;9.70;86.50
38788;DHT22;24536;45.488;12.238;2023-11-19T05:00:14;9.70;86.50
38788;DHT22;24536;45.488;12.238;2023-11-19T05:02:39;9.70;86.70
38788;DHT22;24536;45.488;12.238;2023-11-19T05:05:05;9.70;86.80
38788;DHT22;24536;45.488;12.238;2023-11-19T05:07:31;9.70;86.70
38788;DHT22;24536;45.488;12.238;2023-11-19T05:09:56;9.60;86.80
38788;DHT22;24536;45.488;12.238;2023-11-19T05:12:22;9.60;87.10
38788;DHT22;24536;45.488;12.238;2023-11-19T05:14:48;9.50;87.20
38788;DHT22;24536;45.488;12.238;2023-11-19T05:17:18;9.50;87.30
38788;DHT22;24536;45.488;12.238;2023-11-19T05:19:44;9.50;87.50
38788;DHT22;24536;45.488;12.238;2023-11-19T05:22:10;9.50;87.50
38788;DHT22;24536;45.488;12.238;2023-11-19T05:24:35;9.50;87.30
38788;DHT22;24536;45.488;12.238;2023-11-19T05:27:01;9.50;87.50
38788;DHT22;24536;45.488;12.238;2023-11-19T05:29:27;9.50;87.60
38788;DHT22;24536;45.488;12.238;2023-11-19T05:31:53;9.50;87.90
38788;DHT22;24536;45.488;12.238;2023-11-19T05:34:20;9.50;88.00
38788;DHT22;24536;45.488;12.238;2023-11-19T05:36:46;9.50;87.90
38788;DHT22;24536;45.488;12.238;2023-11-19T05:39:12;9.50;87.90
38788;DHT22;24536;45.488;12.238;2023-11-19T05:41:37;9.50;87.90
38788;DHT22;24536;45.488;12.238;2023-11-19T05:44:03;9.50;87.90
38788;DHT22;24536;45.488;12.238;2023-11-19T05:46:28;9.50;87.80
38788;DHT22;24536;45.488;12.238;2023-11-19T05:48:54;9.50;87.90
38788;DHT22;24536;45.488;12.238;2023-11-19T05:51:20;9.50;87.70
38788;DHT22;24536;45.488;12.238;2023-11-19T05:53:45;9.50;87.60
38788;DHT22;24536;45.488;12.238;2023-11-19T05:56:11;9.50;87.70
38788;DHT22;24536;45.488;12.238;2023-11-19T05:58:36;9.40;87.80
38788;DHT22;24536;45.488;12.238;2023-11-19T06:01:02;9.40;87.80
38788;DHT22;24536;45.488;12.238;2023-11-19T06:03:29;9.40;87.70
38788;DHT22;24536;45.488;12.238;2023-11-19T06:05:54;9.40;87.60
38788;DHT22;24536;45.488;12.238;2023-11-19T06:08:20;9.40;87.60
38788;DHT22;24536;45.488;12.238;2023-11-19T06:10:46;9.40;87.80
38788;DHT22;24536;45.488;12.238;2023-11-19T06:13:14;9.40;88.10
38788;DHT22;24536;45.488;12.238;2023-11-19T06:15:41;9.30;88.20
38788;DHT22;24536;45.488;12.238;2023-11-19T06:18:07;9.40;88.10
38788;DHT22;24536;45.488;12.238;2023-11-19T06:20:33;9.30;88.20
38788;DHT22;24536;45.488;12.238;2023-11-19T06:22:59;9.30;88.10
38788;DHT22;24536;45.488;12.238;2023-11-19T06:25:25;9.20;88.00
38788;DHT22;24536;45.488;12.238;2023-11-19T06:27:51;9.20;88.10
38788;DHT22;24536;45.488;12.238;2023-11-19T06:30:16;9.20;88.10
38788;DHT22;24536;45.488;12.238;2023-11-19T06:32:42;9.10;88.00
38788;DHT22;24536;45.488;12.238;2023-11-19T06:35:08;9.10;88.10
38788;DHT22;24536;45.488;12.238;2023-11-19T06:37:35;9.10;88.10
38788;DHT22;24536;45.488;12.238;2023-11-19T06:40:01;9.10;88.20
38788;DHT22;24536;45.488;12.238;2023-11-19T06:42:26;9.00;88.10
38788;DHT22;24536;45.488;12.238;2023-11-19T06:44:52;9.00;88.20
38788;DHT22;24536;45.488;12.238;2023-11-19T06:47:17;9.00;88.30
38788;DHT22;24536;45.488;12.238;2023-11-19T06:49:43;9.00;88.20
38788;DHT22;24536;45.488;12.238;2023-11-19T06:52:09;9.10;88.40
38788;DHT22;24536;45.488;12.238;2023-11-19T06:54:35;9.00;88.30
38788;DHT22;24536;45.488;12.238;2023-11-19T06:57:00;9.00;88.30
38788;DHT22;24536;45.488;12.238;2023-11-19T06:59:26;9.00;88.40
38788;DHT22;24536;45.488;12.238;2023-11-19T07:01:52;9.00;88.40
38788;DHT22;24536;45.488;12.238;2023-11-19T07:04:21;9.00;88.30
38788;DHT22;24536;45.488;12.238;2023-11-19T07:06:46;9.00;88.40
38788;DHT22;24536;45.488;12.238;2023-11-19T07:09:13;9.00;88.40
38788;DHT22;24536;45.488;12.238;2023-11-19T07:11:39;9.00;87.80
38788;DHT22;24536;45.488;12.238;2023-11-19T07:14:06;9.00;88.00
38788;DHT22;24536;45.488;12.238;2023-11-19T07:16:35;9.00;88.10
38788;DHT22;24536;45.488;12.238;2023-11-19T07:19:02;9.00;88.20
38788;DHT22;24536;45.488;12.238;2023-11-19T07:21:28;9.00;88.20
38788;DHT22;24536;45.488;12.238;2023-11-19T07:23:54;9.10;88.30
38788;DHT22;24536;45.488;12.238;2023-11-19T07:26:20;9.10;88.50
38788;DHT22;24536;45.488;12.238;2023-11-19T07:28:45;9.10;88.60
38788;DHT22;24536;45.488;12.238;2023-11-19T07:31:11;9.10;88.60
38788;DHT22;24536;45.488;12.238;2023-11-19T07:33:38;9.10;88.60
38788;DHT22;24536;45.488;12.238;2023-11-19T07:36:05;9.10;88.50
38788;DHT22;24536;45.488;12.238;2023-11-19T07:38:33;9.20;88.40
38788;DHT22;24536;45.488;12.238;2023-11-19T07:40:59;9.20;88.50
38788;DHT22;24536;45.488;12.238;2023-11-19T07:43:25;9.30;88.90
38788;DHT22;24536;45.488;12.238;2023-11-19T07:45:50;9.30;88.40
38788;DHT22;24536;45.488;12.238;2023-11-19T07:48:16;9.40;88.50
38788;DHT22;24536;45.488;12.238;2023-11-19T07:50:43;9.40;89.00
38788;DHT22;24536;45.488;12.238;2023-11-19T07:53:09;9.50;88.90
38788;DHT22;24536;45.488;12.238;2023-11-19T07:55:34;9.50;88.20
38788;DHT22;24536;45.488;12.238;2023-11-19T07:58:00;9.60;87.90
38788;DHT22;24536;45.488;12.238;2023-11-19T08:00:26;9.70;88.60
38788;DHT22;24536;45.488;12.238;2023-11-19T08:02:52;9.80;88.70
38788;DHT22;24536;45.488;12.238;2023-11-19T08:05:17;9.90;87.50
38788;DHT22;24536;45.488;12.238;2023-11-19T08:07:43;9.90;87.50
38788;DHT22;24536;45.488;12.238;2023-11-19T08:10:08;9.90;87.60
38788;DHT22;24536;45.488;12.238;2023-11-19T08:12:37;9.90;87.60
38788;DHT22;24536;45.488;12.238;2023-11-19T08:15:03;10.00;87.50
38788;DHT22;24536;45.488;12.238;2023-11-19T08:17:30;10.10;88.00
38788;DHT22;24536;45.488;12.238;2023-11-19T08:19:55;10.20;90.60
38788;DHT22;24536;45.488;12.238;2023-11-19T08:22:21;10.40;88.20
38788;DHT22;24536;45.488;12.238;2023-11-19T08:24:48;10.50;90.10
38788;DHT22;24536;45.488;12.238;2023-11-19T08:27:13;10.70;88.10
38788;DHT22;24536;45.488;12.238;2023-11-19T08:29:39;10.80;86.90
38788;DHT22;24536;45.488;12.238;2023-11-19T08:32:05;10.90;84.60
38788;DHT22;24536;45.488;12.238;2023-11-19T08:34:31;10.90;83.00
38788;DHT22;24536;45.488;12.238;2023-11-19T08:36:57;11.10;84.10
38788;DHT22;24536;45.488;12.238;2023-11-19T08:39:23;11.20;84.10
38788;DHT22;24536;45.488;12.238;2023-11-19T08:41:49;11.30;83.60
38788;DHT22;24536;45.488;12.238;2023-11-19T08:44:15;11.40;83.20
38788;DHT22;24536;45.488;12.238;2023-11-19T08:46:51;11.50;83.10
38788;DHT22;24536;45.488;12.238;2023-11-19T08:49:16;11.60;82.70
38788;DHT22;24536;45.488;12.238;2023-11-19T08:51:42;11.60;81.00
38788;DHT22;24536;45.488;12.238;2023-11-19T08:54:08;11.50;80.00
38788;DHT22;24536;45.488;12.238;2023-11-19T08:56:33;11.60;81.10
38788;DHT22;24536;45.488;12.238;2023-11-19T08:59:00;11.50;78.60
38788;DHT22;24536;45.488;12.238;2023-11-19T09:01:26;11.50;79.70
38788;DHT22;24536;45.488;12.238;2023-11-19T09:03:52;11.60;81.60
38788;DHT22;24536;45.488;12.238;2023-11-19T09:06:17;11.80;82.00
38788;DHT22;24536;45.488;12.238;2023-11-19T09:08:43;11.90;82.40
38788;DHT22;24536;45.488;12.238;2023-11-19T09:11:08;12.00;81.30
38788;DHT22;24536;45.488;12.238;2023-11-19T09:13:34;12.10;81.90
38788;DHT22;24536;45.488;12.238;2023-11-19T09:16:00;12.20;81.90
38788;DHT22;24536;45.488;12.238;2023-11-19T09:18:29;12.30;82.60
38788;DHT22;24536;45.488;12.238;2023-11-19T09:20:54;12.30;80.30
38788;DHT22;24536;45.488;12.238;2023-11-19T09:23:20;12.40;77.50
38788;DHT22;24536;45.488;12.238;2023-11-19T09:25:45;12.30;76.40
38788;DHT22;24536;45.488;12.238;2023-11-19T09:28:16;12.40;77.90
38788;DHT22;24536;45.488;12.238;2023-11-19T09:30:50;12.40;77.10
38788;DHT22;24536;45.488;12.238;2023-11-19T09:33:15;12.50;78.70
38788;DHT22;24536;45.488;12.238;2023-11-19T09:35:41;12.60;75.70
38788;DHT22;24536;45.488;12.238;2023-11-19T09:38:07;12.70;77.20
38788;DHT22;24536;45.488;12.238;2023-11-19T09:40:32;12.70;75.60
38788;DHT22;24536;45.488;12.238;2023-11-19T09:42:58;12.80;77.50
38788;DHT22;24536;45.488;12.238;2023-11-19T09:45:25;12.90;77.70
38788;DHT22;24536;45.488;12.238;2023-11-19T09:47:55;13.00;74.60
38788;DHT22;24536;45.488;12.238;2023-11-19T09:50:25;13.10;77.70
38788;DHT22;24536;45.488;12.238;2023-11-19T09:52:50;13.10;74.10
38788;DHT22;24536;45.488;12.238;2023-11-19T09:55:16;13.20;71.70
38788;DHT22;24536;45.488;12.238;2023-11-19T09:57:41;13.20;74.20
38788;DHT22;24536;45.488;12.238;2023-11-19T10:00:09;13.30;71.60
38788;DHT22;24536;45.488;12.238;2023-11-19T10:02:36;13.30;71.50
38788;DHT22;24536;45.488;12.238;2023-11-19T10:05:02;13.40;71.70
38788;DHT22;24536;45.488;12.238;2023-11-19T10:07:30;13.50;69.40
38788;DHT22;24536;45.488;12.238;2023-11-19T10:09:58;13.70;70.30
38788;DHT22;24536;45.488;12.238;2023-11-19T10:12:26;13.80;72.00
38788;DHT22;24536;45.488;12.238;2023-11-19T10:14:51;14.10;69.90
38788;DHT22;24536;45.488;12.238;2023-11-19T10:17:17;14.30;71.70
38788;DHT22;24536;45.488;12.238;2023-11-19T10:19:43;14.50;67.70
38788;DHT22;24536;45.488;12.238;2023-11-19T10:22:08;14.70;68.40
38788;DHT22;24536;45.488;12.238;2023-11-19T10:24:34;14.90;69.60
38788;DHT22;24536;45.488;12.238;2023-11-19T10:27:00;15.00;65.30
38788;DHT22;24536;45.488;12.238;2023-11-19T10:29:29;15.00;64.60
38788;DHT22;24536;45.488;12.238;2023-11-19T10:31:58;14.70;64.30
38788;DHT22;24536;45.488;12.238;2023-11-19T10:34:24;14.80;67.70
38788;DHT22;24536;45.488;12.238;2023-11-19T10:36:50;15.10;69.00
38788;DHT22;24536;45.488;12.238;2023-11-19T10:39:16;15.40;69.40
38788;DHT22;24536;45.488;12.238;2023-11-19T10:41:43;15.90;69.70
38788;DHT22;24536;45.488;12.238;2023-11-19T10:44:09;16.20;69.30
38788;DHT22;24536;45.488;12.238;2023-11-19T10:46:38;16.50;64.60
38788;DHT22;24536;45.488;12.238;2023-11-19T10:49:05;16.70;68.50
38788;DHT22;24536;45.488;12.238;2023-11-19T10:51:42;16.90;67.90
38788;DHT22;24536;45.488;12.238;2023-11-19T10:54:09;17.20;67.10
38788;DHT22;24536;45.488;12.238;2023-11-19T10:56:35;17.40;66.50
38788;DHT22;24536;45.488;12.238;2023-11-19T10:59:02;17.60;66.80
38788;DHT22;24536;45.488;12.238;2023-11-19T11:01:43;17.80;66.00
38788;DHT22;24536;45.488;12.238;2023-11-19T11:04:12;18.00;65.40
38788;DHT22;24536;45.488;12.238;2023-11-19T11:06:39;18.20;64.40
38788;DHT22;24536;45.488;12.238;2023-11-19T11:09:05;18.40;65.00
38788;DHT22;24536;45.488;12.238;2023-11-19T11:11:31;18.30;60.90
38788;DHT22;24536;45.488;12.238;2023-11-19T11:13:57;18.20;58.10
38788;DHT22;24536;45.488;12.238;2023-11-19T11:16:25;18.20;61.60
38788;DHT22;24536;45.488;12.238;2023-11-19T11:18:51;18.40;62.70
38788;DHT22;24536;45.488;12.238;2023-11-19T11:21:17;18.50;59.50
38788;DHT22;24536;45.488;12.238;2023-11-19T11:39:22;22.20;55.70
38788;DHT22;24536;45.488;12.238;2023-11-19T11:47:18;24.10;49.90
38788;DHT22;24536;45.488;12.238;2023-11-19T11:49:44;25.00;47.50
38788;DHT22;24536;45.488;12.238;2023-11-19T11:52:09;25.20;44.40
38788;DHT22;24536;45.488;12.238;2023-11-19T11:54:39;25.50;45.90
38788;DHT22;24536;45.488;12.238;2023-11-19T11:57:07;24.90;43.70
38788;DHT22;24536;45.488;12.238;2023-11-19T11:59:36;24.80;45.70
38788;DHT22;24536;45.488;12.238;2023-11-19T12:02:03;25.10;45.80
38788;DHT22;24536;45.488;12.238;2023-11-19T12:04:28;25.50;46.00
38788;DHT22;24536;45.488;12.238;2023-11-19T12:07:06;26.00;45.20
38788;DHT22;24536;45.488;12.238;2023-11-19T12:09:33;26.00;41.90
38788;DHT22;24536;45.488;12.238;2023-11-19T12:12:12;26.00;46.70
38788;DHT22;24536;45.488;12.238;2023-11-19T12:20:00;24.70;44.80
38788;DHT22;24536;45.488;12.238;2023-11-19T12:22:26;23.90;45.20
38788;DHT22;24536;45.488;12.238;2023-11-19T12:24:55;23.20;46.10
38788;DHT22;24536;45.488;12.238;2023-11-19T12:27:21;22.60;47.20
38788;DHT22;24536;45.488;12.238;2023-11-19T12:29:51;22.10;47.20
38788;DHT22;24536;45.488;12.238;2023-11-19T12:32:17;21.60;48.10
38788;DHT22;24536;45.488;12.238;2023-11-19T12:34:42;21.30;49.30
38788;DHT22;24536;45.488;12.238;2023-11-19T12:37:09;21.00;48.50
38788;DHT22;24536;45.488;12.238;2023-11-19T12:39:35;20.70;50.10
38788;DHT22;24536;45.488;12.238;2023-11-19T12:42:01;20.40;50.80
38788;DHT22;24536;45.488;12.238;2023-11-19T12:44:26;20.10;51.00
38788;DHT22;24536;45.488;12.238;2023-11-19T12:46:59;19.90;51.00
38788;DHT22;24536;45.488;12.238;2023-11-19T12:49:25;19.70;51.40
38788;DHT22;24536;45.488;12.238;2023-11-19T12:51:51;19.40;51.60
38788;DHT22;24536;45.488;12.238;2023-11-19T12:54:16;19.10;54.60
38788;DHT22;24536;45.488;12.238;2023-11-19T12:56:51;19.30;53.80
38788;DHT22;24536;45.488;12.238;2023-11-19T12:59:17;19.80;53.70
38788;DHT22;24536;45.488;12.238;2023-11-19T13:01:53;20.00;52.30
38788;DHT22;24536;45.488;12.238;2023-11-19T13:04:18;20.10;53.30
38788;DHT22;24536;45.488;12.238;2023-11-19T13:06:47;20.10;52.80
38788;DHT22;24536;45.488;12.238;2023-11-19T13:09:23;19.80;51.70
38788;DHT22;24536;45.488;12.238;2023-11-19T13:11:50;19.60;52.30
38788;DHT22;24536;45.488;12.238;2023-11-19T13:14:16;19.30;53.10
38788;DHT22;24536;45.488;12.238;2023-11-19T13:16:42;19.10;54.60
38788;DHT22;24536;45.488;12.238;2023-11-19T13:19:08;19.00;55.60
38788;DHT22;24536;45.488;12.238;2023-11-19T13:21:36;18.80;55.90
38788;DHT22;24536;45.488;12.238;2023-11-19T13:24:03;18.60;55.70
38788;DHT22;24536;45.488;12.238;2023-11-19T13:26:28;18.50;57.20
38788;DHT22;24536;45.488;12.238;2023-11-19T13:28:54;18.30;55.70
38788;DHT22;24536;45.488;12.238;2023-11-19T13:31:20;18.00;54.80
38788;DHT22;24536;45.488;12.238;2023-11-19T13:33:45;17.70;55.80
38788;DHT22;24536;45.488;12.238;2023-11-19T13:36:11;17.40;56.40
38788;DHT22;24536;45.488;12.238;2023-11-19T13:38:37;17.30;57.10
38788;DHT22;24536;45.488;12.238;2023-11-19T13:41:03;17.20;57.70
38788;DHT22;24536;45.488;12.238;2023-11-19T13:43:29;17.10;58.30
38788;DHT22;24536;45.488;12.238;2023-11-19T13:45:55;17.10;59.00
38788;DHT22;24536;45.488;12.238;2023-11-19T13:48:21;17.10;59.40
38788;DHT22;24536;45.488;12.238;2023-11-19T13:50:47;17.10;58.60
38788;DHT22;24536;45.488;12.238;2023-11-19T13:53:12;17.00;58.80
38788;DHT22;24536;45.488;12.238;2023-11-19T13:55:38;16.90;58.90
38788;DHT22;24536;45.488;12.238;2023-11-19T13:58:03;16.90;59.20
38788;DHT22;24536;45.488;12.238;2023-11-19T14:00:29;16.90;59.80
38788;DHT22;24536;45.488;12.238;2023-11-19T14:02:55;16.80;59.70
38788;DHT22;24536;45.488;12.238;2023-11-19T14:05:20;16.70;58.90
38788;DHT22;24536;45.488;12.238;2023-11-19T14:07:46;16.60;59.40
38788;DHT22;24536;45.488;12.238;2023-11-19T14:10:13;16.60;59.10
38788;DHT22;24536;45.488;12.238;2023-11-19T14:12:40;16.40;59.40
38788;DHT22;24536;45.488;12.238;2023-11-19T14:15:06;16.40;60.00
38788;DHT22;24536;45.488;12.238;2023-11-19T14:17:32;16.30;60.50
38788;DHT22;24536;45.488;12.238;2023-11-19T14:19:59;16.30;60.00
38788;DHT22;24536;45.488;12.238;2023-11-19T14:22:24;16.20;61.50
38788;DHT22;24536;45.488;12.238;2023-11-19T14:24:50;16.20;61.60
38788;DHT22;24536;45.488;12.238;2023-11-19T14:27:16;16.20;61.40
38788;DHT22;24536;45.488;12.238;2023-11-19T14:29:43;16.10;61.80
38788;DHT22;24536;45.488;12.238;2023-11-19T14:32:10;16.10;61.70
38788;DHT22;24536;45.488;12.238;2023-11-19T14:34:35;16.10;62.90
38788;DHT22;24536;45.488;12.238;2023-11-19T14:37:01;16.10;63.90
38788;DHT22;24536;45.488;12.238;2023-11-19T14:39:26;16.10;64.60
38788;DHT22;24536;45.488;12.238;2023-11-19T14:41:52;16.10;65.50
38788;DHT22;24536;45.488;12.238;2023-11-19T14:44:19;16.10;65.90
38788;DHT22;24536;45.488;12.238;2023-11-19T14:46:46;16.00;66.40
38788;DHT22;24536;45.488;12.238;2023-11-19T14:49:11;16.00;66.80
38788;DHT22;24536;45.488;12.238;2023-11-19T14:51:37;15.90;67.20
38788;DHT22;24536;45.488;12.238;2023-11-19T14:54:03;15.90;67.70
38788;DHT22;24536;45.488;12.238;2023-11-19T14:56:29;15.90;69.00
38788;DHT22;24536;45.488;12.238;2023-11-19T14:58:54;15.90;68.30
38788;DHT22;24536;45.488;12.238;2023-11-19T15:01:20;15.90;68.10
38788;DHT22;24536;45.488;12.238;2023-11-19T15:03:45;15.80;68.70
38788;DHT22;24536;45.488;12.238;2023-11-19T15:06:11;15.80;68.60
38788;DHT22;24536;45.488;12.238;2023-11-19T15:08:37;15.70;69.10
38788;DHT22;24536;45.488;12.238;2023-11-19T15:11:03;15.70;68.70
38788;DHT22;24536;45.488;12.238;2023-11-19T15:13:30;15.60;69.40
38788;DHT22;24536;45.488;12.238;2023-11-19T15:15:56;15.60;70.10
38788;DHT22;24536;45.488;12.238;2023-11-19T15:18:21;15.50;70.70
38788;DHT22;24536;45.488;12.238;2023-11-19T15:20:47;15.50;71.10
38788;DHT22;24536;45.488;12.238;2023-11-19T15:23:13;15.40;71.90
38788;DHT22;24536;45.488;12.238;2023-11-19T15:25:38;15.40;72.40
38788;DHT22;24536;45.488;12.238;2023-11-19T15:28:04;15.30;72.80
38788;DHT22;24536;45.488;12.238;2023-11-19T15:30:30;15.30;72.60
38788;DHT22;24536;45.488;12.238;2023-11-19T15:32:55;15.20;72.50
38788;DHT22;24536;45.488;12.238;2023-11-19T15:35:21;15.20;73.60
38788;DHT22;24536;45.488;12.238;2023-11-19T15:37:46;15.10;73.80
38788;DHT22;24536;45.488;12.238;2023-11-19T15:40:12;15.10;73.60
38788;DHT22;24536;45.488;12.238;2023-11-19T15:42:38;15.00;74.10